createdAt,value
2023-05-02T00:00:50.929Z,29.45
2023-05-02T00:03:17.669Z,33.42
2023-05-02T00:05:44.940Z,34.15
2023-05-02T00:08:11.907Z,36.33
2023-05-02T00:10:38.654Z,32.83
2023-05-02T00:13:05.300Z,35.75
2023-05-02T00:15:31.733Z,33.90
2023-05-02T00:17:58.441Z,34.67
2023-05-02T00:20:24.949Z,36.13
2023-05-02T00:22:51.711Z,32.42
2023-05-02T00:25:18.137Z,37.17
2023-05-02T00:27:46.950Z,39.50
2023-05-02T00:30:14.165Z,39.33
2023-05-02T00:32:40.746Z,40.92
2023-05-02T00:35:08.724Z,40.47
2023-05-02T00:37:35.854Z,42.03
2023-05-02T00:40:03.583Z,47.92
2023-05-02T00:42:34.455Z,51.03
2023-05-02T00:45:00.807Z,47.65
2023-05-02T00:47:27.364Z,45.88
2023-05-02T00:49:54.072Z,51.58
2023-05-02T00:52:20.788Z,46.72
2023-05-02T00:54:47.268Z,55.83
2023-05-02T00:57:14.041Z,50.53
2023-05-02T00:59:40.596Z,49.17
2023-05-02T01:02:23.305Z,54.65
2023-05-02T01:05:11.748Z,46.47
2023-05-02T01:07:47.074Z,55.15
2023-05-02T01:10:30.516Z,55.65
2023-05-02T01:13:03.423Z,53.80
2023-05-02T01:15:32.579Z,48.65
2023-05-02T01:18:01.828Z,53.00
2023-05-02T01:20:31.129Z,51.35
2023-05-02T01:23:04.686Z,53.50
2023-05-02T01:25:55.056Z,53.17
2023-05-02T01:28:57.309Z,59.60
2023-05-02T01:31:27.047Z,51.25
2023-05-02T01:33:55.811Z,50.88
2023-05-02T01:36:26.741Z,53.58
2023-05-02T01:38:55.634Z,56.88
2023-05-02T01:41:26.194Z,52.20
2023-05-02T01:43:56.642Z,66.35
2023-05-02T01:46:25.419Z,51.88
2023-05-02T01:48:53.478Z,57.45
2023-05-02T01:51:21.737Z,61.70
2023-05-02T01:53:50.264Z,57.90
2023-05-02T01:56:19.289Z,55.03
2023-05-02T01:58:47.997Z,56.38
2023-05-02T02:01:18.061Z,59.58
2023-05-02T02:03:46.727Z,61.03
2023-05-02T02:06:16.044Z,59.92
2023-05-02T02:08:42.863Z,61.75
2023-05-02T02:11:13.057Z,58.42
2023-05-02T02:13:49.033Z,60.75
2023-05-02T02:16:21.618Z,60.05
2023-05-02T02:18:48.166Z,67.47
2023-05-02T02:21:18.961Z,62.22
2023-05-02T02:23:48.426Z,58.13
2023-05-02T02:26:17.356Z,72.22
2023-05-02T02:28:44.217Z,67.05
2023-05-02T02:31:10.770Z,67.45
2023-05-02T02:33:37.972Z,63.22
2023-05-02T02:36:15.092Z,68.22
2023-05-02T02:38:44.954Z,69.93
2023-05-02T02:41:27.665Z,68.85
2023-05-02T02:44:21.377Z,71.72
2023-05-02T02:46:57.608Z,70.57
2023-05-02T02:49:32.083Z,73.35
2023-05-02T02:52:03.747Z,66.53
2023-05-02T02:54:46.997Z,73.32
2023-05-02T02:57:24.748Z,83.97
2023-05-02T03:00:00.346Z,66.32
2023-05-02T03:02:31.316Z,75.60
2023-05-02T03:04:58.735Z,84.40
2023-05-02T03:07:27.668Z,76.63
2023-05-02T03:09:54.093Z,78.97
2023-05-02T03:12:21.051Z,82.90
2023-05-02T03:14:47.530Z,82.95
2023-05-02T03:17:13.885Z,84.95
2023-05-02T03:19:40.910Z,78.68
2023-05-02T03:22:07.271Z,84.00
2023-05-02T03:24:33.621Z,82.85
2023-05-02T03:27:00.060Z,86.70
2023-05-02T03:29:26.705Z,94.88
2023-05-02T03:31:53.294Z,95.22
2023-05-02T03:34:21.810Z,99.53
2023-05-02T03:36:48.238Z,96.53
2023-05-02T03:39:15.584Z,98.93
2023-05-02T03:41:43.649Z,108.32
2023-05-02T03:44:10.038Z,106.32
2023-05-02T03:46:36.700Z,112.30
2023-05-02T03:49:03.446Z,102.43
2023-05-02T03:51:30.034Z,107.00
2023-05-02T03:53:56.579Z,113.25
2023-05-02T03:56:23.098Z,109.57
2023-05-02T03:58:49.488Z,104.55
2023-05-02T04:01:17.036Z,104.28
2023-05-02T04:03:43.785Z,118.85
2023-05-02T04:06:10.775Z,103.95
2023-05-02T04:08:37.623Z,101.35
2023-05-02T04:11:04.340Z,99.45
2023-05-02T04:13:31.143Z,100.70
2023-05-02T04:15:57.526Z,87.75
2023-05-02T04:18:24.187Z,97.50
2023-05-02T04:20:50.677Z,98.75
2023-05-02T04:23:17.915Z,95.85
2023-05-02T04:25:54.968Z,98.13
2023-05-02T04:28:22.242Z,93.07
2023-05-02T04:30:52.252Z,94.97
2023-05-02T04:33:18.702Z,98.68
2023-05-02T04:35:45.949Z,89.13
2023-05-02T04:38:12.362Z,88.70
2023-05-02T04:40:38.978Z,91.20
2023-05-02T04:43:05.698Z,94.65
2023-05-02T04:45:32.564Z,87.07
2023-05-02T04:47:59.017Z,89.63
2023-05-02T04:50:25.922Z,76.32
2023-05-02T04:52:52.720Z,79.57
2023-05-02T04:55:19.420Z,76.32
2023-05-02T04:57:46.125Z,70.00
2023-05-02T05:00:13.010Z,75.03
2023-05-02T05:02:40.212Z,77.70
2023-05-02T05:05:06.947Z,79.88
2023-05-02T05:07:33.686Z,76.80
2023-05-02T05:10:00.918Z,80.28
2023-05-02T05:12:27.500Z,75.72
2023-05-02T05:14:54.053Z,82.70
2023-05-02T05:17:20.478Z,79.05
2023-05-02T05:19:47.178Z,79.07
2023-05-02T05:22:13.824Z,80.18
2023-05-02T05:24:40.735Z,78.75
2023-05-02T05:27:07.140Z,83.40
2023-05-02T05:29:33.553Z,77.55
2023-05-02T05:31:59.988Z,81.80
2023-05-02T05:34:27.071Z,79.82
2023-05-02T05:36:53.890Z,80.55
2023-05-02T05:39:20.294Z,80.90
2023-05-02T05:41:47.130Z,86.25
2023-05-02T05:44:14.045Z,78.95
2023-05-02T05:46:41.318Z,74.97
2023-05-02T05:49:07.861Z,75.53
2023-05-02T05:51:35.384Z,71.38
2023-05-02T05:54:02.104Z,81.43
2023-05-02T05:56:28.449Z,78.30
2023-05-02T05:58:54.977Z,86.40
2023-05-02T06:01:21.652Z,72.80
2023-05-02T06:03:48.436Z,82.50
2023-05-02T06:06:15.089Z,77.38
2023-05-02T06:08:41.583Z,80.65
2023-05-02T06:11:13.996Z,85.85
2023-05-02T06:13:40.490Z,78.80
2023-05-02T06:16:07.123Z,77.07
2023-05-02T06:18:33.577Z,76.85
2023-05-02T06:21:04.913Z,73.93
2023-05-02T06:23:32.986Z,74.35
2023-05-02T06:26:01.034Z,77.22
2023-05-02T06:28:28.178Z,71.20
2023-05-02T06:30:59.740Z,68.90
2023-05-02T06:33:26.781Z,83.22
2023-05-02T06:35:53.762Z,73.38
2023-05-02T06:38:20.769Z,71.00
2023-05-02T06:40:47.825Z,73.68
2023-05-02T06:43:14.800Z,69.00
2023-05-02T06:45:41.961Z,67.90
2023-05-02T06:48:08.625Z,66.35
2023-05-02T06:50:35.497Z,69.45
2023-05-02T06:53:02.213Z,69.20
2023-05-02T06:55:28.629Z,71.10
2023-05-02T06:57:55.708Z,70.78
2023-05-02T07:00:22.507Z,68.97
2023-05-02T07:02:49.659Z,73.18
2023-05-02T07:05:16.528Z,69.28
2023-05-02T07:07:43.626Z,71.90
2023-05-02T07:10:11.271Z,67.53
2023-05-02T07:12:39.308Z,70.70
2023-05-02T07:15:06.732Z,72.13
2023-05-02T07:17:33.321Z,64.30
2023-05-02T07:19:59.888Z,67.03
2023-05-02T07:22:26.677Z,64.05
2023-05-02T07:25:01.886Z,70.75
2023-05-02T07:29:55.044Z,59.08
2023-05-02T07:32:25.995Z,57.40
2023-05-02T07:34:57.361Z,56.65
2023-05-02T07:37:23.733Z,58.83
2023-05-02T07:39:50.237Z,54.58
2023-05-02T07:42:16.631Z,51.97
2023-05-02T07:44:43.277Z,48.70
2023-05-02T07:47:09.866Z,59.78
2023-05-02T07:49:36.836Z,54.90
2023-05-02T07:52:04.266Z,51.33
2023-05-02T07:54:30.672Z,55.72
2023-05-02T07:56:58.682Z,53.38
2023-05-02T07:59:25.144Z,51.58
2023-05-02T08:01:51.564Z,47.45
2023-05-02T08:04:18.108Z,41.45
2023-05-02T08:06:45.301Z,45.65
2023-05-02T08:09:12.125Z,50.10
2023-05-02T08:11:38.593Z,47.30
2023-05-02T08:14:04.968Z,45.65
2023-05-02T08:16:31.488Z,49.25
2023-05-02T08:18:58.251Z,44.65
2023-05-02T08:21:24.704Z,48.25
2023-05-02T08:23:51.444Z,41.15
2023-05-02T08:26:19.384Z,33.33
2023-05-02T08:28:46.269Z,31.80
2023-05-02T08:31:12.711Z,25.35
2023-05-02T08:33:39.145Z,25.55
2023-05-02T08:36:13.192Z,31.75
2023-05-02T08:38:40.064Z,26.33
2023-05-02T08:41:18.580Z,25.95
2023-05-02T08:43:46.155Z,31.77
2023-05-02T08:46:14.439Z,30.98
2023-05-02T08:48:43.289Z,28.08
2023-05-02T08:51:12.285Z,28.15
2023-05-02T08:53:40.043Z,33.05
2023-05-02T08:56:08.671Z,30.73
2023-05-02T08:58:39.367Z,27.58
2023-05-02T09:01:21.219Z,33.25
2023-05-02T09:03:48.891Z,38.72
2023-05-02T09:06:20.981Z,33.97
2023-05-02T09:08:49.418Z,32.60
2023-05-02T09:11:17.065Z,28.90
2023-05-02T09:13:51.637Z,32.10
2023-05-02T09:16:22.998Z,32.75
2023-05-02T09:18:51.712Z,30.08
2023-05-02T09:21:21.394Z,27.33
2023-05-02T09:23:52.813Z,29.27
2023-05-02T09:26:31.103Z,26.85
2023-05-02T09:28:59.921Z,21.92
2023-05-02T09:31:54.120Z,21.48
2023-05-02T09:34:20.750Z,16.75
2023-05-02T09:36:53.752Z,16.50
2023-05-02T09:39:26.061Z,18.67
2023-05-02T09:41:53.450Z,13.73
2023-05-02T09:44:25.061Z,20.05
2023-05-02T09:46:53.578Z,21.30
2023-05-02T09:49:39.882Z,22.70
2023-05-02T09:52:17.001Z,22.70
2023-05-02T09:54:43.596Z,19.27
2023-05-02T09:57:11.004Z,17.95
2023-05-02T09:59:39.450Z,19.38
2023-05-02T10:02:07.431Z,16.48
2023-05-02T10:04:34.646Z,17.38
2023-05-02T10:07:03.279Z,20.90
2023-05-02T10:09:32.540Z,18.60
2023-05-02T10:12:04.930Z,14.63
2023-05-02T10:14:31.766Z,18.45
2023-05-02T10:17:05.680Z,16.92
2023-05-02T10:19:53.023Z,15.93
2023-05-02T10:22:19.967Z,17.30
2023-05-02T10:24:49.270Z,18.17
2023-05-02T10:27:16.071Z,16.50
2023-05-02T10:29:42.815Z,14.32
2023-05-02T10:32:10.795Z,14.90
2023-05-02T10:34:40.711Z,18.42
2023-05-02T10:37:07.220Z,14.25
2023-05-02T10:39:34.004Z,14.43
2023-05-02T10:42:03.298Z,19.80
2023-05-02T10:44:33.756Z,16.02
2023-05-02T10:47:01.142Z,16.40
2023-05-02T10:49:30.037Z,17.15
2023-05-02T10:51:56.524Z,21.42
2023-05-02T10:54:24.656Z,19.92
2023-05-02T10:57:09.323Z,29.23
2023-05-02T10:59:42.838Z,24.03
2023-05-02T11:02:32.651Z,25.25
2023-05-02T11:05:06.677Z,26.38
2023-05-02T11:07:35.922Z,25.42
2023-05-02T11:10:17.343Z,28.73
2023-05-02T11:12:50.624Z,31.30
2023-05-02T11:15:28.099Z,34.40
2023-05-02T11:18:02.409Z,32.58
2023-05-02T11:20:39.919Z,33.88
2023-05-02T11:23:27.322Z,33.08
2023-05-02T11:25:56.078Z,29.30
2023-05-02T11:28:37.453Z,23.85
2023-05-02T11:31:05.819Z,22.20
2023-05-02T11:33:32.949Z,22.80
2023-05-02T11:35:59.946Z,21.48
2023-05-02T11:38:35.151Z,15.98
2023-05-02T11:43:31.887Z,10.70
2023-05-02T11:46:00.069Z,14.77
2023-05-02T11:48:27.455Z,12.88
2023-05-02T11:50:59.139Z,13.30
2023-05-02T11:53:29.692Z,12.73
2023-05-02T11:56:04.195Z,16.02
2023-05-02T11:58:33.889Z,13.37
2023-05-02T12:01:14.130Z,15.35
2023-05-02T12:03:41.484Z,16.60
2023-05-02T12:06:15.469Z,10.57
2023-05-02T12:08:45.292Z,10.43
2023-05-02T12:11:16.604Z,12.40
2023-05-02T12:13:50.255Z,17.95
2023-05-02T12:16:18.185Z,11.05
2023-05-02T12:18:46.239Z,14.05
2023-05-02T12:21:12.959Z,9.63
2023-05-02T12:23:40.650Z,9.48
2023-05-02T12:26:21.841Z,11.60
2023-05-02T12:28:54.270Z,14.02
2023-05-02T12:31:20.856Z,13.05
2023-05-02T12:33:48.713Z,10.68
2023-05-02T12:36:15.314Z,14.10
2023-05-02T12:38:49.405Z,12.45
2023-05-02T12:41:15.872Z,11.68
2023-05-02T12:43:49.784Z,13.02
2023-05-02T12:46:16.464Z,9.13
2023-05-02T12:48:44.844Z,12.18
2023-05-02T12:51:31.479Z,10.82
2023-05-02T12:53:57.870Z,9.25
2023-05-02T12:56:24.630Z,12.43
2023-05-02T12:58:51.535Z,9.20
2023-05-02T13:01:17.944Z,8.68
2023-05-02T13:03:44.753Z,12.25
2023-05-02T13:06:11.697Z,10.40
2023-05-02T13:08:38.290Z,10.98
2023-05-02T13:11:05.109Z,12.70
2023-05-02T13:13:32.581Z,10.75
2023-05-02T13:15:59.068Z,10.15
2023-05-02T13:18:25.780Z,12.20
2023-05-02T13:20:52.172Z,11.43
2023-05-02T13:23:18.656Z,12.55
2023-05-02T13:25:45.045Z,13.35
2023-05-02T13:28:11.502Z,19.55
2023-05-02T13:30:37.970Z,11.07
2023-05-02T13:33:04.589Z,12.27
2023-05-02T13:35:32.693Z,13.60
2023-05-02T13:38:00.440Z,15.10
2023-05-02T13:40:27.617Z,14.65
2023-05-02T13:42:54.057Z,14.65
2023-05-02T13:45:20.478Z,12.43
2023-05-02T13:47:46.953Z,12.25
2023-05-02T13:50:13.399Z,15.35
2023-05-02T13:52:39.891Z,14.75
2023-05-02T13:55:07.157Z,16.85
2023-05-02T13:57:33.578Z,14.48
2023-05-02T14:00:00.413Z,12.48
2023-05-02T14:02:27.183Z,10.25
2023-05-02T14:04:53.640Z,14.20
2023-05-02T14:07:20.031Z,16.98
2023-05-02T14:09:46.364Z,21.45
2023-05-02T14:12:12.790Z,13.25
2023-05-02T14:14:39.136Z,16.10
2023-05-02T14:17:06.531Z,13.10
2023-05-02T14:19:33.063Z,9.38
2023-05-02T14:21:59.541Z,10.90
2023-05-02T14:24:25.923Z,10.70
2023-05-02T14:26:52.680Z,11.38
2023-05-02T14:29:19.761Z,13.40
2023-05-02T14:31:46.516Z,12.45
2023-05-02T14:34:13.434Z,13.05
2023-05-02T14:36:39.820Z,15.60
2023-05-02T14:39:06.336Z,14.65
2023-05-02T14:41:32.740Z,13.25
2023-05-02T14:43:59.105Z,11.93
2023-05-02T14:46:26.160Z,10.80
2023-05-02T14:48:52.506Z,13.15
2023-05-02T14:51:18.963Z,14.63
2023-05-02T14:53:47.926Z,9.93
2023-05-02T14:56:16.327Z,10.55
2023-05-02T14:58:43.166Z,9.25
2023-05-02T15:01:18.956Z,13.85
2023-05-02T15:04:05.092Z,11.57
2023-05-02T15:06:33.418Z,14.38
2023-05-02T15:09:00.273Z,14.15
2023-05-02T15:11:26.717Z,14.95
2023-05-02T15:13:53.081Z,8.82
2023-05-02T15:16:19.728Z,13.25
2023-05-02T15:18:46.199Z,11.38
2023-05-02T15:21:12.846Z,11.35
2023-05-02T15:23:39.236Z,11.70
2023-05-02T15:26:06.392Z,13.90
2023-05-02T15:28:32.783Z,10.15
2023-05-02T15:30:59.241Z,15.32
2023-05-02T15:33:25.685Z,13.00
2023-05-02T15:35:58.176Z,16.35
2023-05-02T15:38:25.744Z,9.57
2023-05-02T15:40:55.600Z,12.48
2023-05-02T15:43:22.816Z,17.00
2023-05-02T15:45:52.357Z,12.10
2023-05-02T15:48:19.378Z,11.40
2023-05-02T15:50:47.053Z,13.88
2023-05-02T15:53:15.669Z,13.82
2023-05-02T15:55:46.232Z,11.57
2023-05-02T15:58:13.680Z,15.45
2023-05-02T16:00:40.313Z,17.48
2023-05-02T16:03:06.918Z,11.52
2023-05-02T16:05:34.059Z,11.80
2023-05-02T16:08:01.142Z,12.85
2023-05-02T16:10:27.860Z,16.33
2023-05-02T16:12:54.448Z,18.67
2023-05-02T16:15:21.224Z,13.45
2023-05-02T16:17:49.401Z,14.98
2023-05-02T16:20:17.049Z,15.82
2023-05-02T16:22:47.594Z,16.33
2023-05-02T16:25:16.023Z,12.13
2023-05-02T16:27:43.185Z,14.05
2023-05-02T16:30:10.120Z,12.15
2023-05-02T16:32:39.328Z,17.55
2023-05-02T16:35:08.405Z,12.98
2023-05-02T16:37:35.496Z,11.13
2023-05-02T16:40:05.420Z,8.95
2023-05-02T16:42:32.489Z,10.43
2023-05-02T16:44:58.927Z,10.68
2023-05-02T16:47:25.599Z,11.40
2023-05-02T16:49:59.387Z,15.18
2023-05-02T16:52:26.524Z,13.63
2023-05-02T16:54:53.629Z,16.25
2023-05-02T16:57:21.669Z,14.82
2023-05-02T16:59:49.506Z,13.50
2023-05-02T17:02:16.707Z,12.63
2023-05-02T17:04:43.822Z,14.30
2023-05-02T17:07:13.157Z,12.48
2023-05-02T17:09:41.323Z,13.50
2023-05-02T17:12:10.242Z,13.73
2023-05-02T17:14:37.986Z,12.40
2023-05-02T17:17:04.466Z,13.15
2023-05-02T17:19:31.362Z,13.20
2023-05-02T17:21:58.377Z,12.65
2023-05-02T17:24:25.354Z,14.15
2023-05-02T17:26:52.781Z,12.02
2023-05-02T17:29:19.324Z,12.75
2023-05-02T17:31:45.904Z,13.13
2023-05-02T17:34:12.690Z,12.00
2023-05-02T17:36:41.830Z,12.63
2023-05-02T17:39:09.441Z,13.30
2023-05-02T17:41:36.636Z,13.15
2023-05-02T17:44:04.693Z,10.05
2023-05-02T17:46:31.646Z,10.82
2023-05-02T17:48:58.420Z,11.15
2023-05-02T17:51:24.759Z,15.70
2023-05-02T17:53:51.799Z,15.77
2023-05-02T17:56:21.241Z,8.77
2023-05-02T17:58:47.938Z,12.55
2023-05-02T18:01:14.492Z,10.65
2023-05-02T18:03:41.972Z,12.45
2023-05-02T18:06:09.010Z,9.52
2023-05-02T18:08:36.099Z,7.72
2023-05-02T18:11:03.375Z,9.68
2023-05-02T18:13:30.620Z,9.25
2023-05-02T18:16:03.489Z,9.75
2023-05-02T18:18:30.084Z,10.57
2023-05-02T18:20:56.696Z,12.02
2023-05-02T18:23:23.271Z,8.18
2023-05-02T18:25:49.745Z,9.82
2023-05-02T18:28:16.113Z,8.02
2023-05-02T18:30:42.609Z,6.57
2023-05-02T18:33:09.119Z,7.20
2023-05-02T18:35:36.090Z,6.55
2023-05-02T18:38:06.507Z,9.82
2023-05-02T18:40:32.958Z,8.50
2023-05-02T18:42:59.759Z,9.90
2023-05-02T18:45:26.254Z,7.63
2023-05-02T18:47:53.413Z,11.85
2023-05-02T18:50:20.006Z,6.13
2023-05-02T18:52:46.610Z,7.55
2023-05-02T18:55:13.014Z,7.75
2023-05-02T18:57:39.450Z,6.75
2023-05-02T19:00:06.674Z,8.32
2023-05-02T19:02:33.513Z,9.30
2023-05-02T19:05:00.439Z,6.38
2023-05-02T19:07:27.639Z,9.07
2023-05-02T19:09:54.049Z,8.25
2023-05-02T19:12:20.462Z,6.50
2023-05-02T19:14:47.786Z,7.68
2023-05-02T19:17:14.216Z,4.78
2023-05-02T19:19:41.618Z,9.75
2023-05-02T19:22:08.334Z,8.45
2023-05-02T19:24:35.951Z,8.13
2023-05-02T19:27:06.864Z,8.18
2023-05-02T19:29:34.230Z,7.78
2023-05-02T19:32:01.122Z,5.35
2023-05-02T19:34:28.166Z,10.73
2023-05-02T19:36:55.455Z,10.73
2023-05-02T19:39:21.824Z,7.55
2023-05-02T19:41:49.802Z,7.32
2023-05-02T19:44:16.763Z,7.15
2023-05-02T19:46:43.268Z,7.35
2023-05-02T19:49:09.824Z,12.18
2023-05-02T19:51:36.201Z,6.13
2023-05-02T19:54:02.666Z,8.00
2023-05-02T19:56:29.866Z,9.02
2023-05-02T19:58:59.461Z,9.65
2023-05-02T20:01:31.020Z,8.57
2023-05-02T20:03:57.940Z,9.02
2023-05-02T20:06:24.529Z,7.45
2023-05-02T20:08:52.425Z,9.40
2023-05-02T20:11:19.528Z,7.47
2023-05-02T20:13:45.907Z,10.38
2023-05-02T20:16:14.252Z,12.55
2023-05-02T20:18:40.769Z,7.28
2023-05-02T20:21:07.242Z,9.00
2023-05-02T20:23:33.636Z,9.13
2023-05-02T20:26:00.335Z,7.93
2023-05-02T20:28:27.229Z,8.15
2023-05-02T20:30:53.593Z,9.48
2023-05-02T20:33:23.072Z,9.25
2023-05-02T20:35:54.993Z,9.35
2023-05-02T20:38:23.999Z,10.63
2023-05-02T20:40:50.692Z,8.82
2023-05-02T20:43:22.815Z,9.82
2023-05-02T20:45:49.596Z,9.25
2023-05-02T20:48:19.815Z,12.38
2023-05-02T20:50:54.655Z,11.57
2023-05-02T20:53:23.741Z,11.15
2023-05-02T20:55:50.793Z,10.88
2023-05-02T20:58:17.168Z,8.18
2023-05-02T21:00:43.559Z,12.25
2023-05-02T21:03:10.127Z,10.88
2023-05-02T21:05:36.806Z,12.27
2023-05-02T21:08:03.249Z,10.48
2023-05-02T21:10:30.433Z,9.43
2023-05-02T21:12:56.811Z,11.10
2023-05-02T21:15:23.196Z,12.88
2023-05-02T21:17:49.936Z,11.07
2023-05-02T21:20:16.324Z,16.20
2023-05-02T21:22:42.909Z,10.45
2023-05-02T21:25:09.720Z,14.73
2023-05-02T21:27:36.398Z,9.95
2023-05-02T21:30:03.056Z,13.88
2023-05-02T21:32:30.100Z,12.85
2023-05-02T21:34:56.543Z,10.82
2023-05-02T21:37:22.899Z,11.82
2023-05-02T21:39:49.468Z,11.38
2023-05-02T21:42:15.840Z,13.90
2023-05-02T21:44:43.352Z,9.27
2023-05-02T21:47:09.979Z,11.13
2023-05-02T21:49:36.780Z,17.30
2023-05-02T21:52:03.813Z,13.10
2023-05-02T21:54:30.227Z,10.35
2023-05-02T21:56:56.917Z,8.23
2023-05-02T21:59:23.277Z,14.32
2023-05-02T22:01:50.293Z,12.18
2023-05-02T22:04:17.917Z,8.30
2023-05-02T22:06:50.282Z,14.25
2023-05-02T22:09:17.336Z,10.45
2023-05-02T22:11:44.064Z,14.40
2023-05-02T22:14:11.578Z,13.68
2023-05-02T22:16:39.875Z,9.82
2023-05-02T22:19:07.381Z,12.85
2023-05-02T22:21:34.102Z,10.48
2023-05-02T22:24:00.692Z,11.07
2023-05-02T22:26:27.061Z,14.30
2023-05-02T22:28:53.510Z,10.35
2023-05-02T22:31:20.224Z,12.85
2023-05-02T22:33:49.729Z,11.07
2023-05-02T22:36:17.919Z,11.93
2023-05-02T22:38:44.373Z,13.23
2023-05-02T22:41:11.188Z,12.48
2023-05-02T22:43:37.546Z,11.15
2023-05-02T22:46:04.009Z,10.35
2023-05-02T22:48:30.781Z,8.50
2023-05-02T22:50:57.343Z,13.10
2023-05-02T22:53:23.773Z,9.10
2023-05-02T22:55:51.854Z,10.55
2023-05-02T22:58:18.657Z,14.15
2023-05-02T23:00:45.108Z,10.90
2023-05-02T23:03:11.899Z,10.85
2023-05-02T23:05:38.488Z,11.07
2023-05-02T23:08:04.995Z,11.18
2023-05-02T23:10:31.409Z,13.20
2023-05-02T23:12:57.881Z,10.57
2023-05-02T23:15:24.663Z,12.38
2023-05-02T23:17:51.045Z,18.23
2023-05-02T23:20:19.865Z,8.73
2023-05-02T23:22:46.853Z,12.60
2023-05-02T23:25:14.923Z,13.43
2023-05-02T23:27:41.759Z,11.55
2023-05-02T23:30:08.667Z,9.18
2023-05-02T23:32:35.352Z,12.30
2023-05-02T23:35:02.300Z,13.25
2023-05-02T23:37:29.391Z,12.27
2023-05-02T23:39:57.604Z,12.85
2023-05-02T23:42:24.070Z,13.52
2023-05-02T23:44:50.503Z,9.23
2023-05-02T23:47:16.948Z,12.77
2023-05-02T23:49:43.329Z,10.18
2023-05-02T23:52:09.719Z,13.57
2023-05-02T23:54:36.295Z,10.82
2023-05-02T23:57:03.175Z,14.93
2023-05-02T23:59:29.702Z,12.93
